Time;durP1;ratioP1;P1;durP2;ratioP2;P2;SDS_P1;SDS_P2;PMS_P1;PMS_P2;Temp;Humidity;BMP_temperature;BMP_pressure;BME280_temperature;BME280_humidity;BME280_pressure;Samples;Min_cycle;Max_cycle;Signal;HPM_P1;HPM_P2
2023/01/21 00:01:52;;;;;;;15.95;9.75;;;;;;;13.79;50.38;102794.97;5129361;27;20050;-37
2023/01/21 00:04:19;;;;;;;15.93;9.88;;;;;;;13.78;49.98;102796.72;5123095;27;20078;-34
2023/01/21 00:06:46;;;;;;;14.07;8.80;;;;;;;13.77;50.49;102807.47;5130367;27;20065;-35
2023/01/21 00:09:12;;;;;;;14.13;9.70;;;;;;;13.77;50.33;102815.47;5125861;27;20470;-34
2023/01/21 00:11:39;;;;;;;14.30;9.23;;;;;;;13.76;50.45;102814.63;5130347;27;20425;-35
2023/01/21 00:14:06;;;;;;;16.55;9.55;;;;;;;13.76;50.27;102819.09;5127641;27;20131;-34
2023/01/21 00:16:32;;;;;;;14.98;9.30;;;;;;;13.75;50.52;102822.72;5131789;27;20054;-34
2023/01/21 00:18:59;;;;;;;13.43;8.50;;;;;;;13.74;50.34;102832.47;5129165;27;20042;-35
2023/01/21 00:21:25;;;;;;;17.30;9.63;;;;;;;13.74;50.32;102839.63;5131286;27;20039;-34
2023/01/21 00:23:52;;;;;;;12.98;8.98;;;;;;;13.74;50.51;102847.59;5124029;27;20047;-37
2023/01/21 00:26:18;;;;;;;13.75;8.75;;;;;;;13.74;50.65;102845.81;5128958;27;20047;-34
2023/01/21 00:28:45;;;;;;;14.13;9.07;;;;;;;13.75;50.25;102849.34;5127396;27;20065;-34
2023/01/21 00:31:12;;;;;;;16.00;9.70;;;;;;;13.74;50.26;102844.94;5131791;27;20426;-34
2023/01/21 00:33:39;;;;;;;14.02;8.38;;;;;;;13.75;50.26;102844.88;5123183;27;20325;-34
2023/01/21 00:36:10;;;;;;;15.75;9.25;;;;;;;13.74;50.45;102851.13;5117418;27;20452;-34
2023/01/21 00:38:37;;;;;;;13.80;9.02;;;;;;;13.76;50.52;102851.06;5120901;27;20061;-35
2023/01/21 00:41:06;;;;;;;14.02;8.45;;;;;;;13.74;50.20;102840.47;5122263;27;20043;-34
2023/01/21 00:43:33;;;;;;;13.18;8.20;;;;;;;13.75;50.33;102841.38;5120716;27;20036;-34
2023/01/21 00:45:59;;;;;;;13.35;9.00;;;;;;;13.74;50.39;102843.13;5122830;27;20130;-34
2023/01/21 00:48:27;;;;;;;15.60;9.63;;;;;;;13.74;50.39;102840.47;5124457;27;20083;-34
2023/01/21 00:50:57;;;;;;;14.10;8.98;;;;;;;13.75;50.44;102841.38;5123067;27;20047;-34
2023/01/21 00:53:24;;;;;;;15.27;9.48;;;;;;;13.74;49.88;102842.28;5124333;27;20042;-34
2023/01/21 00:55:51;;;;;;;15.50;9.55;;;;;;;13.74;50.08;102850.28;5122972;27;20054;-34
2023/01/21 00:58:18;;;;;;;14.25;8.75;;;;;;;13.74;50.43;102852.94;5123119;27;20039;-35
2023/01/21 01:00:45;;;;;;;14.18;8.93;;;;;;;13.74;50.64;102852.94;5123208;27;20055;-34
2023/01/21 01:03:11;;;;;;;13.75;8.93;;;;;;;13.73;50.51;102865.41;5120349;27;21185;-34
2023/01/21 01:05:38;;;;;;;13.82;9.02;;;;;;;13.72;50.22;102869.00;5120444;27;21092;-35
2023/01/21 01:08:04;;;;;;;13.75;8.82;;;;;;;13.73;50.12;102873.41;5125913;27;20059;-36
2023/01/21 01:10:31;;;;;;;11.73;7.90;;;;;;;13.71;50.36;102869.97;5123301;27;20051;-34
2023/01/21 01:12:59;;;;;;;11.60;7.78;;;;;;;13.71;50.63;102882.41;5120727;27;20054;-34
2023/01/21 01:15:26;;;;;;;14.95;9.35;;;;;;;13.70;50.38;102878.00;5123172;27;20051;-34
2023/01/21 01:17:52;;;;;;;12.98;8.77;;;;;;;13.70;50.06;102886.00;5124790;27;20047;-34
2023/01/21 01:20:19;;;;;;;13.85;8.40;;;;;;;13.68;50.42;102882.56;5120678;27;20555;-34
2023/01/21 01:22:46;;;;;;;12.73;8.30;;;;;;;13.68;50.53;102880.75;5123817;27;20035;-34
2023/01/21 01:25:12;;;;;;;13.25;8.50;;;;;;;13.68;50.38;102894.09;5118567;27;20127;-34
2023/01/21 01:27:39;;;;;;;13.13;8.18;;;;;;;13.68;50.39;102891.41;5119486;27;20055;-34
2023/01/21 01:30:06;;;;;;;12.73;8.02;;;;;;;13.67;50.57;102894.13;5119447;27;20558;-34
2023/01/21 01:32:33;;;;;;;12.85;8.25;;;;;;;13.68;50.49;102895.88;5121542;27;20432;-34
2023/01/21 01:35:00;;;;;;;12.65;8.10;;;;;;;13.68;50.44;102907.41;5119258;27;20077;-34
2023/01/21 01:37:26;;;;;;;12.35;8.45;;;;;;;13.69;50.32;102914.47;5122115;27;20043;-33
2023/01/21 01:39:53;;;;;;;11.23;7.40;;;;;;;13.68;50.43;102915.41;5119192;27;20047;-34
2023/01/21 01:42:20;;;;;;;14.27;8.75;;;;;;;13.69;50.39;102919.78;5119356;27;20341;-34
2023/01/21 01:45:04;;;;;;;12.27;7.57;;;;;;;13.67;50.55;102929.69;5121552;27;20050;-34
2023/01/21 01:47:41;;;;;;;13.55;8.23;;;;;;;13.70;50.10;102934.84;5122028;27;20069;-34
2023/01/21 01:50:13;;;;;;;11.50;7.82;;;;;;;13.71;50.54;102933.03;5122247;27;20049;-34
2023/01/21 01:52:41;;;;;;;13.68;8.05;;;;;;;13.70;50.64;102931.31;5121909;27;20288;-34
2023/01/21 01:55:10;;;;;;;13.25;7.95;;;;;;;13.70;50.05;102929.50;5119370;27;20142;-34
2023/01/21 01:57:45;;;;;;;12.48;7.38;;;;;;;13.70;50.53;102932.16;5120884;27;20351;-34
2023/01/21 02:00:12;;;;;;;13.00;8.43;;;;;;;13.71;50.62;102925.91;5122595;27;20079;-34
2023/01/21 02:02:41;;;;;;;10.77;7.45;;;;;;;13.70;50.73;102926.84;5123132;27;20092;-35
2023/01/21 02:05:10;;;;;;;13.38;8.40;;;;;;;13.68;50.09;102928.72;5121026;27;20087;-34
2023/01/21 02:07:41;;;;;;;12.25;7.68;;;;;;;13.68;50.64;102927.88;5117538;27;20051;-34
2023/01/21 02:10:11;;;;;;;10.50;6.75;;;;;;;13.67;50.78;102932.34;5122237;27;20043;-34
2023/01/21 02:12:41;;;;;;;10.40;7.20;;;;;;;13.67;50.26;102937.66;5129010;27;20050;-34
2023/01/21 02:15:08;;;;;;;12.20;7.40;;;;;;;13.67;50.13;102942.09;5126793;27;20145;-34
2023/01/21 02:17:57;;;;;;;11.55;7.75;;;;;;;13.65;50.15;102954.66;5125332;27;20453;-34
2023/01/21 02:20:39;;;;;;;12.57;7.50;;;;;;;13.63;50.05;102956.50;5123992;27;20059;-34
2023/01/21 02:23:08;;;;;;;11.30;7.43;;;;;;;13.65;50.11;102960.84;5125006;27;20488;-33
2023/01/21 02:26:03;;;;;;;9.88;7.00;;;;;;;13.61;50.23;102959.25;5125781;27;20465;-34
2023/01/21 02:29:07;;;;;;;12.35;7.43;;;;;;;13.60;50.34;102973.53;5126310;27;20353;-34
2023/01/21 02:31:40;;;;;;;13.07;7.10;;;;;;;13.62;50.35;102979.63;5127481;27;20335;-34
2023/01/21 02:34:15;;;;;;;10.30;6.88;;;;;;;13.62;50.50;102973.44;5126763;28;20047;-34
2023/01/21 02:37:09;;;;;;;12.10;7.32;;;;;;;13.59;50.37;102974.47;5127141;27;20058;-34
2023/01/21 02:39:53;;;;;;;11.75;7.78;;;;;;;13.58;50.04;102981.56;5124851;28;20047;-34
2023/01/21 02:42:32;;;;;;;;;;;;;;;13.60;50.49;102986.00;5123982;28;20055;-35
2023/01/21 02:45:15;;;;;;;10.98;6.82;;;;;;;13.64;50.35;103001.75;5119991;28;20264;-34
2023/01/21 02:48:05;;;;;;;10.07;6.88;;;;;;;13.61;50.30;103004.56;5122079;28;20057;-34
2023/01/21 02:50:51;;;;;;;9.35;6.65;;;;;;;13.62;50.28;103008.94;5118103;28;20142;-34
2023/01/21 02:53:25;;;;;;;10.27;6.93;;;;;;;13.62;50.40;103016.06;5121233;28;20422;-33
2023/01/21 02:55:52;;;;;;;10.25;6.97;;;;;;;13.63;50.24;103016.03;5121563;28;20482;-34
2023/01/21 02:58:27;;;;;;;12.65;6.65;;;;;;;13.62;50.34;103016.06;5119649;28;20054;-35
2023/01/21 03:01:23;;;;;;;8.95;6.10;;;;;;;13.62;50.43;103016.94;5121588;28;20057;-34
2023/01/21 03:04:41;;;;;;;9.38;6.07;;;;;;;13.62;50.31;103024.06;5090288;27;20126;-34
2023/01/21 03:07:10;;;;;;;9.30;6.10;;;;;;;13.62;50.29;103024.94;5065584;28;20051;-34
2023/01/21 03:09:36;;;;;;;11.57;6.97;;;;;;;13.61;50.30;103025.88;5122469;28;20347;-34
2023/01/21 03:12:15;;;;;;;8.70;5.90;;;;;;;13.60;50.32;103034.81;5119702;28;20047;-34
2023/01/21 03:17:59;;;;;;;10.23;6.68;;;;;;;13.60;50.06;103034.81;5120939;28;20071;-34
2023/01/21 03:20:33;;;;;;;9.32;6.50;;;;;;;13.59;50.31;103041.09;5120679;27;20051;-34
2023/01/21 03:23:08;;;;;;;9.93;6.28;;;;;;;13.59;50.37;103043.75;5122475;28;20388;-36
2023/01/21 03:25:36;;;;;;;12.13;6.95;;;;;;;13.60;50.42;103040.13;5122157;28;20043;-33
2023/01/21 03:28:08;;;;;;;9.15;6.32;;;;;;;13.59;50.54;103038.41;5118758;28;20067;-36
2023/01/21 03:30:39;;;;;;;9.75;6.97;;;;;;;13.58;50.41;103036.66;5122427;27;21017;-36
2023/01/21 03:33:08;;;;;;;11.57;6.25;;;;;;;13.60;50.36;103037.47;5120636;28;20081;-34
2023/01/21 03:35:40;;;;;;;8.57;5.95;;;;;;;13.59;50.32;103043.75;5122821;27;20050;-35
2023/01/21 03:38:25;;;;;;;9.63;6.43;;;;;;;13.57;50.33;103040.28;5121653;28;20069;-34
2023/01/21 03:41:01;;;;;;;9.82;5.97;;;;;;;13.58;50.14;103048.19;5117301;27;20047;-36
2023/01/21 03:43:28;;;;;;;7.38;5.40;;;;;;;13.60;50.18;103049.94;5121651;28;20048;-35
2023/01/21 03:46:03;;;;;;;9.88;6.20;;;;;;;13.59;50.30;103046.41;5119414;28;20050;-34
2023/01/21 03:48:56;;;;;;;9.25;6.03;;;;;;;13.58;50.43;103047.31;5120810;27;20181;-34
2023/01/21 03:51:29;;;;;;;9.45;6.47;;;;;;;13.60;50.57;103052.59;5123835;27;20130;-34
2023/01/21 03:53:58;;;;;;;8.30;5.88;;;;;;;13.59;50.53;103051.75;5123322;27;20390;-35
2023/01/21 03:56:25;;;;;;;10.15;6.53;;;;;;;13.60;50.22;103055.25;5121596;27;20043;-34
2023/01/21 03:58:52;;;;;;;8.75;6.07;;;;;;;13.58;49.81;103058.84;5120827;27;20055;-34
2023/01/21 04:01:19;;;;;;;8.80;6.07;;;;;;;13.59;50.31;103062.41;5122537;27;20047;-34
2023/01/21 04:03:45;;;;;;;8.85;5.47;;;;;;;13.59;50.51;103062.41;5124908;27;20369;-35
2023/01/21 04:06:14;;;;;;;7.93;5.57;;;;;;;13.58;50.25;103073.97;5126158;27;20126;-37
2023/01/21 04:08:40;;;;;;;9.13;6.03;;;;;;;13.57;50.39;103075.78;5124729;27;20043;-35
2023/01/21 04:11:07;;;;;;;8.48;5.78;;;;;;;13.57;50.06;103075.78;5123887;27;20055;-36
2023/01/21 04:13:33;;;;;;;8.70;5.20;;;;;;;13.59;50.36;103083.72;5123804;27;20120;-34
2023/01/21 04:16:00;;;;;;;9.07;5.82;;;;;;;13.56;50.25;103084.72;5121221;27;20047;-34
2023/01/21 04:18:26;;;;;;;8.05;5.68;;;;;;;13.56;50.33;103074.06;5123046;27;20043;-34
2023/01/21 04:20:53;;;;;;;10.07;6.38;;;;;;;13.56;50.23;103082.03;5124419;27;20049;-34
2023/01/21 04:23:20;;;;;;;8.60;5.78;;;;;;;13.54;50.39;103081.22;5120852;27;20466;-34
2023/01/21 04:25:47;;;;;;;8.85;5.65;;;;;;;13.55;50.09;103080.31;5126883;27;20062;-34
2023/01/21 04:28:14;;;;;;;8.23;5.88;;;;;;;13.54;50.21;103078.56;5123436;27;20058;-35
2023/01/21 04:30:40;;;;;;;9.48;5.88;;;;;;;13.55;50.31;103084.78;5120566;27;20047;-37
2023/01/21 04:33:07;;;;;;;9.80;6.43;;;;;;;13.54;50.41;103081.22;5123561;27;20050;-34
2023/01/21 04:35:35;;;;;;;7.45;5.32;;;;;;;13.54;50.31;103086.56;5122907;27;20051;-35
2023/01/21 04:38:03;;;;;;;7.15;5.10;;;;;;;13.54;50.15;103085.69;5124971;27;20048;-34
2023/01/21 04:40:30;;;;;;;7.68;5.28;;;;;;;13.54;50.35;103083.91;5124518;27;20070;-34
2023/01/21 04:42:57;;;;;;;7.95;5.20;;;;;;;13.55;50.38;103087.44;5118331;27;20044;-35
2023/01/21 04:45:23;;;;;;;8.50;5.35;;;;;;;13.56;50.37;103083.84;5123832;27;20051;-34
2023/01/21 04:47:50;;;;;;;8.15;5.38;;;;;;;13.54;50.49;103091.88;5125590;27;20042;-34
2023/01/21 04:50:17;;;;;;;7.90;5.68;;;;;;;13.56;50.41;103090.03;5126219;27;20046;-34
2023/01/21 04:52:44;;;;;;;8.25;5.68;;;;;;;13.56;50.43;103084.72;5129309;27;20092;-34
2023/01/21 04:55:11;;;;;;;9.00;5.90;;;;;;;13.56;49.66;103083.84;5127224;27;20057;-34
2023/01/21 04:57:37;;;;;;;7.85;5.53;;;;;;;13.57;50.29;103086.44;5126634;27;20051;-34
2023/01/21 05:00:06;;;;;;;7.13;4.88;;;;;;;13.57;50.00;103088.22;5129931;27;20047;-34
2023/01/21 05:02:33;;;;;;;7.95;5.05;;;;;;;13.56;50.34;103090.03;5125074;27;20126;-35
2023/01/21 05:05:00;;;;;;;7.28;5.03;;;;;;;13.57;49.93;103090.91;5118089;27;20082;-34
2023/01/21 05:07:26;;;;;;;7.18;5.28;;;;;;;13.56;49.91;103091.84;5124015;27;20054;-35
2023/01/21 05:09:53;;;;;;;6.72;4.90;;;;;;;13.56;50.26;103089.19;5122933;27;20050;-34
2023/01/21 05:12:19;;;;;;;7.07;5.07;;;;;;;13.55;50.15;103098.97;5122307;27;20057;-34
2023/01/21 05:14:46;;;;;;;7.82;5.30;;;;;;;13.54;50.22;103101.69;5120531;27;20623;-34
2023/01/21 05:17:13;;;;;;;6.82;4.80;;;;;;;13.54;50.15;103104.34;5117552;27;20066;-34
2023/01/21 05:19:39;;;;;;;8.27;5.45;;;;;;;13.55;50.28;103114.97;5121724;27;20064;-34
2023/01/21 05:22:06;;;;;;;6.55;4.78;;;;;;;13.54;50.33;103117.66;5124269;27;20330;-34
2023/01/21 05:24:32;;;;;;;7.15;4.90;;;;;;;13.54;50.33;103113.19;5122339;27;20067;-34
2023/01/21 05:27:00;;;;;;;7.00;4.97;;;;;;;13.52;49.97;103117.75;5123744;27;20133;-34
2023/01/21 05:29:26;;;;;;;7.65;4.97;;;;;;;13.52;50.31;103115.09;5121393;27;20449;-37
2023/01/21 05:31:53;;;;;;;6.82;4.93;;;;;;;13.51;50.36;103113.38;5123627;27;20061;-33
2023/01/21 05:34:19;;;;;;;7.28;5.10;;;;;;;13.51;50.54;103120.50;5122887;27;20081;-34
2023/01/21 05:36:46;;;;;;;8.98;5.45;;;;;;;13.50;50.24;103127.59;5121000;27;20061;-34
2023/01/21 05:39:12;;;;;;;7.60;4.78;;;;;;;13.50;50.21;103130.25;5118143;27;20711;-33
2023/01/21 05:41:39;;;;;;;6.57;4.88;;;;;;;13.51;50.00;103133.81;5124291;27;20057;-36
2023/01/21 05:44:07;;;;;;;6.68;4.45;;;;;;;13.51;50.16;103129.34;5117959;27;20047;-33
2023/01/21 05:46:34;;;;;;;9.07;5.22;;;;;;;13.50;50.38;103121.41;5121868;27;20055;-34
2023/01/21 05:49:01;;;;;;;6.47;5.18;;;;;;;13.50;50.21;103132.91;5121722;27;20049;-36
2023/01/21 05:51:27;;;;;;;7.13;4.93;;;;;;;13.49;50.26;103133.88;5121664;27;20046;-36
2023/01/21 05:53:54;;;;;;;6.32;4.35;;;;;;;13.51;50.02;103144.47;5122877;27;20050;-36
2023/01/21 05:56:21;;;;;;;6.68;4.90;;;;;;;13.52;50.18;103148.84;5118682;27;20047;-34
2023/01/21 05:58:47;;;;;;;5.47;4.03;;;;;;;13.51;50.11;103153.31;5122969;27;20047;-34
2023/01/21 06:01:14;;;;;;;7.47;4.90;;;;;;;13.52;50.29;103162.19;5120292;27;20052;-34
2023/01/21 06:03:40;;;;;;;6.65;4.55;;;;;;;13.52;50.11;103162.19;5121854;27;20042;-36
2023/01/21 06:06:07;;;;;;;6.90;4.25;;;;;;;13.52;50.31;103172.84;5122122;27;20063;-36
2023/01/21 06:08:33;;;;;;;7.82;4.78;;;;;;;13.52;50.25;103183.50;5120009;27;20100;-35
2023/01/21 06:11:00;;;;;;;6.57;4.43;;;;;;;13.52;50.19;103178.16;5125963;27;20051;-34
2023/01/21 06:13:26;;;;;;;6.95;4.55;;;;;;;13.52;50.33;103183.50;5124001;27;20079;-34
2023/01/21 06:15:57;;;;;;;7.00;4.72;;;;;;;13.51;50.28;103187.09;5128733;27;20046;-34
2023/01/21 06:18:24;;;;;;;7.10;4.50;;;;;;;13.51;50.29;103193.28;5128474;27;20042;-34
2023/01/21 06:20:50;;;;;;;7.00;4.68;;;;;;;13.49;50.25;103195.13;5127231;27;20043;-34
2023/01/21 06:23:17;;;;;;;6.93;4.47;;;;;;;13.49;50.47;103205.78;5124078;27;20043;-34
2023/01/21 06:25:44;;;;;;;6.80;4.50;;;;;;;13.49;50.29;103200.47;5127436;27;20070;-37
2023/01/21 06:28:11;;;;;;;7.00;4.82;;;;;;;13.47;50.26;103202.34;5122757;27;20386;-33
2023/01/21 06:30:38;;;;;;;6.90;4.75;;;;;;;13.47;50.31;103213.00;5123144;27;20057;-34
2023/01/21 06:33:04;;;;;;;6.85;4.60;;;;;;;13.48;50.31;103213.88;5127881;27;20051;-34
2023/01/21 06:35:31;;;;;;;6.65;4.68;;;;;;;13.47;50.30;103215.66;5125795;27;20453;-34
2023/01/21 06:37:57;;;;;;;7.43;4.85;;;;;;;13.46;50.53;103218.38;5123653;28;20176;-34
2023/01/21 06:40:24;;;;;;;7.47;4.75;;;;;;;13.47;50.32;103217.47;5121237;28;20048;-34
2023/01/21 06:42:52;;;;;;;6.47;4.68;;;;;;;13.45;50.35;103224.66;5123485;28;20054;-34
2023/01/21 06:45:19;;;;;;;5.85;4.35;;;;;;;13.45;50.17;103230.84;5121397;28;20395;-34
2023/01/21 06:47:46;;;;;;;6.57;4.38;;;;;;;13.45;50.21;103228.16;5118035;27;21696;-35
2023/01/21 06:50:14;;;;;;;6.10;4.20;;;;;;;13.45;50.18;103225.50;5118751;28;20461;-35
2023/01/21 06:52:43;;;;;;;7.68;4.80;;;;;;;13.47;50.22;103233.44;5121782;28;20047;-35
2023/01/21 06:55:10;;;;;;;7.70;4.75;;;;;;;13.46;50.93;103239.69;5123381;27;20047;-34
2023/01/21 06:57:37;;;;;;;7.63;4.88;;;;;;;13.47;50.47;103246.78;5120083;27;20382;-35
2023/01/21 07:00:05;;;;;;;6.28;4.43;;;;;;;13.48;50.28;103244.03;5112926;28;20058;-35
2023/01/21 07:02:32;;;;;;;7.60;4.50;;;;;;;13.48;50.40;103257.34;5120926;28;20052;-35
2023/01/21 07:04:59;;;;;;;8.15;4.57;;;;;;;13.49;50.12;103261.75;5123692;28;21681;-35
2023/01/21 07:07:26;;;;;;;8.30;4.75;;;;;;;13.49;50.05;103260.88;5119232;27;20059;-34
2023/01/21 07:09:52;;;;;;;6.57;5.07;;;;;;;13.50;50.40;103254.59;5118039;28;20047;-37
2023/01/21 07:12:19;;;;;;;6.53;4.32;;;;;;;13.48;50.15;103265.34;5117776;27;20047;-34
2023/01/21 07:14:45;;;;;;;6.72;4.78;;;;;;;13.46;50.14;103267.19;5120915;27;20035;-35
2023/01/21 07:17:12;;;;;;;6.63;4.18;;;;;;;13.48;50.10;103269.81;5120634;28;20046;-36
2023/01/21 07:19:39;;;;;;;5.57;3.97;;;;;;;13.47;50.08;103273.41;5122140;28;20069;-34
2023/01/21 07:22:05;;;;;;;7.00;4.45;;;;;;;13.46;50.12;103284.97;5121037;27;20048;-34
2023/01/21 07:24:32;;;;;;;7.38;4.68;;;;;;;13.45;50.16;103283.25;5120548;27;20338;-34
2023/01/21 07:26:58;;;;;;;7.43;4.80;;;;;;;13.45;50.10;103288.56;5125297;27;20552;-34
2023/01/21 07:29:26;;;;;;;7.57;4.70;;;;;;;13.44;50.06;103286.84;5121592;27;20464;-35
2023/01/21 07:31:53;;;;;;;6.78;4.10;;;;;;;13.43;50.02;103286.00;5125847;27;20070;-36
2023/01/21 07:34:19;;;;;;;7.05;4.68;;;;;;;13.42;50.12;103291.38;5124546;27;20126;-34
2023/01/21 07:36:46;;;;;;;6.53;4.40;;;;;;;13.41;50.07;103287.84;5120350;27;20043;-34
2023/01/21 07:39:12;;;;;;;7.82;4.97;;;;;;;13.40;50.13;103294.09;5124053;27;20052;-35
2023/01/21 07:41:39;;;;;;;7.20;4.60;;;;;;;13.40;50.02;103303.91;5122714;27;20130;-35
2023/01/21 07:44:07;;;;;;;7.75;4.53;;;;;;;13.39;50.03;103304.81;5125824;27;20039;-34
2023/01/21 07:46:34;;;;;;;6.90;4.53;;;;;;;13.39;50.49;103305.69;5126836;27;20043;-34
2023/01/21 07:49:01;;;;;;;6.57;4.70;;;;;;;13.37;50.02;103296.03;5122339;27;20094;-34
2023/01/21 07:51:28;;;;;;;8.00;4.78;;;;;;;13.36;50.14;103292.50;5125585;27;20054;-34
2023/01/21 07:53:55;;;;;;;7.22;4.95;;;;;;;13.37;50.00;103298.69;5122971;27;20166;-34
2023/01/21 07:56:23;;;;;;;7.18;5.00;;;;;;;13.36;50.37;103312.94;5123134;27;20050;-34
2023/01/21 07:58:50;;;;;;;5.85;4.53;;;;;;;13.36;50.06;103318.28;5124376;27;20051;-34
2023/01/21 08:01:17;;;;;;;6.60;4.85;;;;;;;13.36;50.50;103312.94;5122400;27;20054;-34
2023/01/21 08:03:43;;;;;;;6.65;4.60;;;;;;;13.34;50.07;103321.84;5121271;27;20327;-34
2023/01/21 08:06:10;;;;;;;7.30;4.78;;;;;;;13.36;50.05;103320.94;5125714;27;20039;-34
2023/01/21 08:08:36;;;;;;;6.22;4.30;;;;;;;13.34;50.40;103323.63;5123938;27;20055;-33
2023/01/21 08:11:03;;;;;;;6.90;4.60;;;;;;;13.35;50.22;103317.41;5123922;27;20055;-34
2023/01/21 08:13:29;;;;;;;6.93;4.28;;;;;;;13.34;50.30;103324.50;5130158;27;20043;-34
2023/01/21 08:15:56;;;;;;;6.78;4.60;;;;;;;13.34;50.22;103328.97;5124567;27;20335;-34
2023/01/21 08:18:23;;;;;;;6.10;4.50;;;;;;;13.33;50.71;103333.44;5127635;27;20040;-34
2023/01/21 08:20:55;;;;;;;7.07;4.78;;;;;;;13.32;50.15;103333.50;5128646;27;20073;-34
2023/01/21 08:23:22;;;;;;;7.18;4.47;;;;;;;13.33;50.33;103351.22;5127527;27;20043;-34
2023/01/21 08:25:48;;;;;;;6.97;4.63;;;;;;;13.32;50.12;103347.69;5128947;27;20100;-34
2023/01/21 08:28:16;;;;;;;6.63;4.63;;;;;;;13.33;50.28;103361.88;5128939;27;20063;-37
2023/01/21 08:30:42;;;;;;;6.10;4.20;;;;;;;13.33;50.29;103365.38;5125035;27;20044;-33
2023/01/21 08:33:09;;;;;;;6.65;4.93;;;;;;;13.34;49.96;103363.59;5128508;27;20047;-34
2023/01/21 08:35:36;;;;;;;6.20;4.00;;;;;;;13.35;50.14;103360.03;5126171;27;20044;-36
2023/01/21 08:38:02;;;;;;;5.72;4.20;;;;;;;13.36;50.26;103369.75;5126269;27;20051;-34
2023/01/21 08:40:29;;;;;;;7.53;4.57;;;;;;;13.36;50.30;103375.06;5125479;27;20039;-34
2023/01/21 08:43:02;;;;;;;7.07;4.80;;;;;;;13.39;50.26;103395.38;5123291;27;20059;-35
2023/01/21 08:45:29;;;;;;;;;;;;;;;13.34;50.14;103390.22;5123865;27;20969;-35
2023/01/21 08:47:56;;;;;;;6.82;4.65;;;;;;;13.41;49.94;103398.84;5121404;27;20559;-34
2023/01/21 08:50:23;;;;;;;8.38;5.15;;;;;;;13.39;50.12;103403.34;5123294;27;20385;-38
2023/01/21 08:52:54;;;;;;;6.88;4.93;;;;;;;13.36;50.09;103401.72;5121437;27;20430;-37
2023/01/21 08:55:26;;;;;;;6.57;4.57;;;;;;;13.36;50.02;103401.72;5126836;27;20154;-36
2023/01/21 08:57:57;;;;;;;6.32;4.57;;;;;;;13.36;50.21;103406.16;5128089;27;20039;-34
2023/01/21 09:00:24;;;;;;;7.30;4.45;;;;;;;13.35;49.79;103397.31;5124414;27;20410;-34
2023/01/21 09:02:51;;;;;;;7.32;5.03;;;;;;;13.34;49.83;103399.09;5127008;27;20059;-35
2023/01/21 09:05:18;;;;;;;6.00;4.30;;;;;;;13.33;50.05;103397.34;5129269;27;20054;-35
2023/01/21 09:07:45;;;;;;;6.82;4.55;;;;;;;13.33;49.82;103401.81;5126010;27;20127;-35
2023/01/21 09:10:59;;;;;;;7.47;5.03;;;;;;;13.33;49.46;103401.81;5128725;27;20093;-34
2023/01/21 09:13:03;;;;;;;8.68;5.90;;;;;;;13.32;50.05;103400.97;5125273;27;20379;-34
2023/01/21 09:15:30;;;;;;;7.20;5.20;;;;;;;13.32;50.02;103392.97;5125064;27;20044;-34
2023/01/21 09:17:56;;;;;;;7.30;5.05;;;;;;;13.33;50.08;103393.81;5126573;27;20134;-35
2023/01/21 09:20:23;;;;;;;6.43;4.55;;;;;;;13.33;50.49;103399.16;5124362;27;20039;-34
2023/01/21 09:22:49;;;;;;;8.02;5.15;;;;;;;13.33;50.24;103401.81;5129019;27;20434;-34
2023/01/21 09:25:16;;;;;;;9.23;5.57;;;;;;;13.33;50.15;103405.34;5124496;27;20043;-36
2023/01/21 09:27:43;;;;;;;8.00;5.22;;;;;;;13.34;50.35;103407.06;5127622;27;20052;-34
2023/01/21 09:30:10;;;;;;;7.78;5.10;;;;;;;13.34;50.15;103415.06;5126062;27;20051;-37
2023/01/21 09:32:36;;;;;;;8.68;5.43;;;;;;;13.34;50.36;103417.72;5126869;27;20130;-34
2023/01/21 09:35:03;;;;;;;7.95;5.38;;;;;;;13.37;50.68;103429.22;5125546;27;20047;-34
2023/01/21 09:37:33;;;;;;;9.60;6.03;;;;;;;13.36;50.29;103435.47;5124407;27;20053;-34
2023/01/21 09:40:00;;;;;;;9.07;5.40;;;;;;;13.37;50.44;103431.88;5120141;27;20166;-36
2023/01/21 09:42:31;;;;;;;8.20;4.97;;;;;;;13.39;50.74;103443.31;5120295;27;20434;-35
2023/01/21 09:45:00;;;;;;;8.40;5.55;;;;;;;13.37;50.34;103438.06;5119458;27;20039;-36
2023/01/21 09:47:35;;;;;;;9.73;6.05;;;;;;;13.39;50.36;103451.31;5119448;27;20044;-34
2023/01/21 09:50:12;;;;;;;9.15;6.40;;;;;;;13.41;50.75;103454.78;5124755;27;20047;-34
2023/01/21 09:52:42;;;;;;;8.77;6.00;;;;;;;13.43;50.41;103450.28;5126740;27;20043;-34
2023/01/21 09:55:33;;;;;;;9.98;6.30;;;;;;;13.43;50.85;103460.94;5123276;27;20044;-35
2023/01/21 09:58:25;;;;;;;8.82;6.07;;;;;;;13.44;50.43;103455.56;5120177;27;20354;-34
2023/01/21 10:01:15;;;;;;;9.52;6.13;;;;;;;13.46;50.49;103452.81;5122862;27;20331;-34
2023/01/21 10:03:58;;;;;;;10.45;6.80;;;;;;;13.48;50.38;103461.63;5122903;27;20442;-34
2023/01/21 10:06:29;;;;;;;11.27;6.97;;;;;;;13.49;50.39;103458.91;5124193;27;20312;-37
2023/01/21 10:09:10;;;;;;;11.98;7.13;;;;;;;13.50;50.70;103459.75;5122268;27;20047;-35
2023/01/21 10:12:14;;;;;;;11.18;7.40;;;;;;;13.50;50.40;103465.09;5122673;27;20054;-34
2023/01/21 10:15:13;;;;;;;9.48;6.60;;;;;;;13.52;50.62;103465.91;5124943;27;20057;-39
2023/01/21 10:18:02;;;;;;;12.30;7.35;;;;;;;13.53;50.62;103480.97;5120893;27;20054;-34
2023/01/21 10:20:44;;;;;;;10.85;6.75;;;;;;;13.55;50.65;103463.13;5123713;27;20066;-34
2023/01/21 10:23:30;;;;;;;13.45;8.20;;;;;;;13.56;50.61;103464.88;5125614;27;20055;-34
2023/01/21 10:26:00;;;;;;;12.02;7.47;;;;;;;13.60;51.04;103468.28;5123123;27;20054;-34
2023/01/21 10:28:32;;;;;;;12.10;7.57;;;;;;;13.60;50.87;103470.94;5122603;27;20062;-35
2023/01/21 10:31:19;;;;;;;12.75;7.45;;;;;;;13.59;50.78;103472.75;5124496;27;20051;-35
2023/01/21 10:33:46;;;;;;;12.35;7.68;;;;;;;13.61;50.61;103464.69;5119466;27;20055;-36
2023/01/21 10:36:18;;;;;;;14.02;8.70;;;;;;;13.60;50.74;103473.59;5118995;27;20046;-35
2023/01/21 10:39:12;;;;;;;14.30;8.20;;;;;;;13.61;50.73;103470.00;5118089;28;20043;-34
2023/01/21 10:42:06;;;;;;;14.17;8.57;;;;;;;13.62;50.78;103469.94;5125257;28;20335;-35
2023/01/21 10:44:44;;;;;;;14.45;8.60;;;;;;;13.62;51.18;103475.25;5123581;28;20133;-38
2023/01/21 10:47:38;;;;;;;15.05;8.88;;;;;;;13.63;50.90;103478.78;5124261;27;20137;-34
2023/01/21 10:50:35;;;;;;;15.90;8.85;;;;;;;13.64;50.84;103475.22;5122628;28;20057;-35
2023/01/21 10:53:21;;;;;;;16.55;9.48;;;;;;;13.65;50.74;103468.97;5123976;28;20053;-34
2023/01/21 10:55:53;;;;;;;15.77;9.15;;;;;;;13.64;50.90;103478.75;5123694;28;20039;-34
2023/01/21 10:58:36;;;;;;;15.57;9.00;;;;;;;13.65;50.99;103468.97;5127768;27;20140;-36
2023/01/21 11:01:06;;;;;;;14.18;9.23;;;;;;;13.65;51.11;103464.50;5129323;27;20039;-34
2023/01/21 11:03:41;;;;;;;14.10;8.95;;;;;;;13.66;51.00;103473.34;5128971;27;20057;-35
2023/01/21 11:06:11;;;;;;;15.55;9.65;;;;;;;13.67;50.71;103475.06;5130287;27;20051;-35
2023/01/21 11:08:40;;;;;;;16.30;9.93;;;;;;;13.68;50.92;103476.84;5126890;27;20411;-35
2023/01/21 11:11:07;;;;;;;14.20;8.95;;;;;;;13.69;50.75;103468.78;5127461;27;20508;-35
2023/01/21 11:13:34;;;;;;;14.77;8.93;;;;;;;13.70;51.25;103474.97;5124772;27;20089;-35
2023/01/21 11:16:03;;;;;;;14.25;9.23;;;;;;;13.70;50.63;103478.50;5126317;27;20050;-35
2023/01/21 11:18:31;;;;;;;16.75;8.88;;;;;;;13.72;50.83;103479.31;5129121;27;20048;-34
2023/01/21 11:21:01;;;;;;;14.60;9.02;;;;;;;13.73;51.18;103467.72;5130899;27;20240;-34
2023/01/21 11:23:30;;;;;;;16.95;9.38;;;;;;;13.75;50.67;103471.22;5121127;27;20096;-34
2023/01/21 11:26:06;;;;;;;15.52;9.82;;;;;;;13.76;51.04;103470.28;5123286;27;20346;-34
2023/01/21 11:28:35;;;;;;;17.50;9.98;;;;;;;13.79;51.35;103474.63;5123241;27;20055;-34
2023/01/21 11:31:22;;;;;;;20.02;10.43;;;;;;;13.79;50.95;103480.81;5127334;27;20434;-34
2023/01/21 11:33:48;;;;;;;16.20;9.68;;;;;;;13.82;51.26;103486.00;5125219;27;20050;-34
2023/01/21 11:36:17;;;;;;;15.35;10.07;;;;;;;13.83;51.26;103479.75;5125400;27;20046;-34
2023/01/21 11:38:56;;;;;;;17.30;10.05;;;;;;;13.86;51.25;103481.41;5122907;27;20051;-34
2023/01/21 11:41:23;;;;;;;20.05;10.75;;;;;;;13.88;51.41;103479.56;5124140;27;20046;-34